sensor_id;sensor_type;location;lat;lon;timestamp;pressure;altitude;pressure_sealevel;temperature;humidity
67430;BME280;54298;52.076;5.264;2023-12-04T00:00:30;101172.0;;;2.56;87.1
67430;BME280;54298;52.076;5.264;2023-12-04T00:02:07;101165.0;;;2.48;87.3
67430;BME280;54298;52.076;5.264;2023-12-04T00:05:21;101163.0;;;2.44;87.48
67430;BME280;54298;52.076;5.264;2023-12-04T00:06:58;101156.0;;;2.33;87.61
67430;BME280;54298;52.076;5.264;2023-12-04T00:08:36;101162.0;;;2.36;87.42
67430;BME280;54298;52.076;5.264;2023-12-04T00:10:12;101151.0;;;2.4;87.5
67430;BME280;54298;52.076;5.264;2023-12-04T00:13:26;101148.0;;;2.19;88.1
67430;BME280;54298;52.076;5.264;2023-12-04T00:15:02;101147.0;;;2.46;87.17
67430;BME280;54298;52.076;5.264;2023-12-04T00:16:40;101142.0;;;2.37;87.08
67430;BME280;54298;52.076;5.264;2023-12-04T00:19:54;101140.0;;;2.36;87.32
67430;BME280;54298;52.076;5.264;2023-12-04T00:21:30;101139.0;;;2.42;87.15
67430;BME280;54298;52.076;5.264;2023-12-04T00:23:08;101138.0;;;2.33;87.75
67430;BME280;54298;52.076;5.264;2023-12-04T00:26:21;101130.0;;;2.48;86.91
67430;BME280;54298;52.076;5.264;2023-12-04T00:27:57;101130.0;;;2.4;87.09
67430;BME280;54298;52.076;5.264;2023-12-04T00:29:34;101126.0;;;2.48;86.89
67430;BME280;54298;52.076;5.264;2023-12-04T00:31:12;101125.0;;;2.54;86.5
67430;BME280;54298;52.076;5.264;2023-12-04T00:34:24;101122.0;;;2.37;87.42
67430;BME280;54298;52.076;5.264;2023-12-04T00:36:01;101122.0;;;2.4;87.48
67430;BME280;54298;52.076;5.264;2023-12-04T00:37:38;101121.0;;;2.48;87.06
67430;BME280;54298;52.076;5.264;2023-12-04T00:40:51;101122.0;;;2.5;86.92
67430;BME280;54298;52.076;5.264;2023-12-04T00:42:28;101118.0;;;2.48;86.9
67430;BME280;54298;52.076;5.264;2023-12-04T00:44:05;101115.0;;;2.52;86.95
67430;BME280;54298;52.076;5.264;2023-12-04T00:48:54;101106.0;;;2.57;86.88
67430;BME280;54298;52.076;5.264;2023-12-04T00:50:30;101109.0;;;2.58;86.86
67430;BME280;54298;52.076;5.264;2023-12-04T00:52:06;101111.0;;;2.5;87.06
67430;BME280;54298;52.076;5.264;2023-12-04T00:55:19;101112.0;;;2.48;87.1
67430;BME280;54298;52.076;5.264;2023-12-04T00:56:56;101114.0;;;2.61;87.1
67430;BME280;54298;52.076;5.264;2023-12-04T00:58:33;101106.0;;;2.72;86.43
67430;BME280;54298;52.076;5.264;2023-12-04T01:01:48;101105.0;;;2.62;86.78
67430;BME280;54298;52.076;5.264;2023-12-04T01:03:24;101101.0;;;2.5;86.86
67430;BME280;54298;52.076;5.264;2023-12-04T01:05:00;101100.0;;;2.46;87.47
67430;BME280;54298;52.076;5.264;2023-12-04T01:06:36;101105.0;;;2.59;86.97
67430;BME280;54298;52.076;5.264;2023-12-04T01:09:48;101102.0;;;2.38;87.47
67430;BME280;54298;52.076;5.264;2023-12-04T01:11:24;101097.0;;;2.42;87.47
67430;BME280;54298;52.076;5.264;2023-12-04T01:13:01;101094.0;;;2.5;87.58
67430;BME280;54298;52.076;5.264;2023-12-04T01:16:14;101090.0;;;2.54;87.21
67430;BME280;54298;52.076;5.264;2023-12-04T01:17:51;101088.0;;;2.54;87.36
67430;BME280;54298;52.076;5.264;2023-12-04T01:19:27;101089.0;;;2.56;87.36
67430;BME280;54298;52.076;5.264;2023-12-04T01:22:41;101085.0;;;2.56;87.13
67430;BME280;54298;52.076;5.264;2023-12-04T01:24:18;101077.0;;;2.56;86.83
67430;BME280;54298;52.076;5.264;2023-12-04T01:25:55;101069.0;;;2.5;87.36
67430;BME280;54298;52.076;5.264;2023-12-04T01:27:32;101070.0;;;2.48;87.55
67430;BME280;54298;52.076;5.264;2023-12-04T01:30:44;101067.0;;;2.36;87.39
67430;BME280;54298;52.076;5.264;2023-12-04T01:32:20;101068.0;;;2.44;87.7
67430;BME280;54298;52.076;5.264;2023-12-04T01:33:57;101071.0;;;2.5;87.36
67430;BME280;54298;52.076;5.264;2023-12-04T01:37:11;101071.0;;;2.48;87.21
67430;BME280;54298;52.076;5.264;2023-12-04T01:38:48;101068.0;;;2.44;87.48
67430;BME280;54298;52.076;5.264;2023-12-04T01:40:24;101056.0;;;2.34;87.43
67430;BME280;54298;52.076;5.264;2023-12-04T01:43:38;101056.0;;;2.44;87.48
67430;BME280;54298;52.076;5.264;2023-12-04T01:45:15;101059.0;;;2.38;87.77
67430;BME280;54298;52.076;5.264;2023-12-04T01:46:52;101057.0;;;2.38;87.94
67430;BME280;54298;52.076;5.264;2023-12-04T01:48:29;101058.0;;;2.44;87.56
67430;BME280;54298;52.076;5.264;2023-12-04T01:51:45;101057.0;;;2.44;87.38
67430;BME280;54298;52.076;5.264;2023-12-04T01:53:22;101061.0;;;2.44;87.62
67430;BME280;54298;52.076;5.264;2023-12-04T01:54:59;101056.0;;;2.44;87.54
67430;BME280;54298;52.076;5.264;2023-12-04T01:58:13;101060.0;;;2.4;87.5
67430;BME280;54298;52.076;5.264;2023-12-04T01:59:51;101051.0;;;2.38;87.76
67430;BME280;54298;52.076;5.264;2023-12-04T02:01:28;101052.0;;;2.52;87.37
67430;BME280;54298;52.076;5.264;2023-12-04T02:03:06;101041.0;;;2.4;87.71
67430;BME280;54298;52.076;5.264;2023-12-04T02:06:21;101041.0;;;2.46;87.68
67430;BME280;54298;52.076;5.264;2023-12-04T02:07:59;101040.0;;;2.52;87.46
67430;BME280;54298;52.076;5.264;2023-12-04T02:09:38;101033.0;;;2.41;87.59
67430;BME280;54298;52.076;5.264;2023-12-04T02:12:52;101033.0;;;2.32;87.89
67430;BME280;54298;52.076;5.264;2023-12-04T02:14:29;101034.0;;;2.5;87.64
67430;BME280;54298;52.076;5.264;2023-12-04T02:16:09;101030.0;;;2.48;87.36
67430;BME280;54298;52.076;5.264;2023-12-04T02:17:46;101021.0;;;2.42;87.86
67430;BME280;54298;52.076;5.264;2023-12-04T02:21:00;101025.0;;;2.46;87.49
67430;BME280;54298;52.076;5.264;2023-12-04T02:22:38;101020.0;;;2.38;88.0
67430;BME280;54298;52.076;5.264;2023-12-04T02:24:14;101011.0;;;2.29;87.76
67430;BME280;54298;52.076;5.264;2023-12-04T02:27:39;101015.0;;;2.27;88.24
67430;BME280;54298;52.076;5.264;2023-12-04T02:29:21;101014.0;;;2.29;87.79
67430;BME280;54298;52.076;5.264;2023-12-04T02:31:04;101014.0;;;2.34;88.01
67430;BME280;54298;52.076;5.264;2023-12-04T02:32:44;101005.0;;;2.27;87.94
67430;BME280;54298;52.076;5.264;2023-12-04T02:36:00;101000.0;;;2.33;87.79
67430;BME280;54298;52.076;5.264;2023-12-04T02:37:41;100997.0;;;2.23;87.79
67430;BME280;54298;52.076;5.264;2023-12-04T02:39:19;100997.0;;;2.29;87.89
67430;BME280;54298;52.076;5.264;2023-12-04T02:40:56;100991.0;;;2.31;87.55
67430;BME280;54298;52.076;5.264;2023-12-04T02:44:11;100978.0;;;2.39;87.33
67430;BME280;54298;52.076;5.264;2023-12-04T02:45:48;100983.0;;;2.37;87.23
67430;BME280;54298;52.076;5.264;2023-12-04T02:47:24;100980.0;;;2.23;87.41
67430;BME280;54298;52.076;5.264;2023-12-04T02:50:36;100981.0;;;2.34;87.13
67430;BME280;54298;52.076;5.264;2023-12-04T02:52:12;100978.0;;;2.29;87.4
67430;BME280;54298;52.076;5.264;2023-12-04T02:53:49;100975.0;;;2.46;86.86
67430;BME280;54298;52.076;5.264;2023-12-04T02:55:27;100975.0;;;2.42;86.83
67430;BME280;54298;52.076;5.264;2023-12-04T02:58:41;100969.0;;;2.23;87.54
67430;BME280;54298;52.076;5.264;2023-12-04T03:00:18;100968.0;;;2.36;87.0
67430;BME280;54298;52.076;5.264;2023-12-04T03:01:54;100970.0;;;2.46;86.8
67430;BME280;54298;52.076;5.264;2023-12-04T03:05:06;100958.0;;;2.37;86.97
67430;BME280;54298;52.076;5.264;2023-12-04T03:06:42;100965.0;;;2.48;86.83
67430;BME280;54298;52.076;5.264;2023-12-04T03:08:18;100957.0;;;2.34;86.89
67430;BME280;54298;52.076;5.264;2023-12-04T03:11:31;100950.0;;;2.35;87.01
67430;BME280;54298;52.076;5.264;2023-12-04T03:13:07;100948.0;;;2.27;87.47
67430;BME280;54298;52.076;5.264;2023-12-04T03:14:43;100947.0;;;2.25;87.24
67430;BME280;54298;52.076;5.264;2023-12-04T03:16:19;100946.0;;;2.32;87.05
67430;BME280;54298;52.076;5.264;2023-12-04T03:19:31;100937.0;;;2.37;86.66
67430;BME280;54298;52.076;5.264;2023-12-04T03:21:07;100935.0;;;2.37;86.54
67430;BME280;54298;52.076;5.264;2023-12-04T03:22:43;100935.0;;;2.4;86.43
67430;BME280;54298;52.076;5.264;2023-12-04T03:25:55;100930.0;;;2.32;86.72
67430;BME280;54298;52.076;5.264;2023-12-04T03:27:32;100927.0;;;2.36;86.63
67430;BME280;54298;52.076;5.264;2023-12-04T03:29:08;100925.0;;;2.32;86.73
67430;BME280;54298;52.076;5.264;2023-12-04T03:32:20;100922.0;;;2.34;86.67
67430;BME280;54298;52.076;5.264;2023-12-04T03:33:56;100923.0;;;2.35;86.38
67430;BME280;54298;52.076;5.264;2023-12-04T03:35:32;100921.0;;;2.31;86.36
67430;BME280;54298;52.076;5.264;2023-12-04T03:38:44;100914.0;;;2.29;86.38
67430;BME280;54298;52.076;5.264;2023-12-04T03:40:20;100911.0;;;2.32;86.22
67430;BME280;54298;52.076;5.264;2023-12-04T03:41:57;100910.0;;;2.32;86.16
67430;BME280;54298;52.076;5.264;2023-12-04T03:43:33;100902.0;;;2.35;86.11
67430;BME280;54298;52.076;5.264;2023-12-04T03:46:45;100905.0;;;2.29;86.06
67430;BME280;54298;52.076;5.264;2023-12-04T03:48:21;100906.0;;;2.32;86.09
67430;BME280;54298;52.076;5.264;2023-12-04T03:49:57;100905.0;;;2.25;86.34
67430;BME280;54298;52.076;5.264;2023-12-04T03:53:10;100901.0;;;2.33;85.93
67430;BME280;54298;52.076;5.264;2023-12-04T03:54:45;100895.0;;;2.04;86.43
67430;BME280;54298;52.076;5.264;2023-12-04T03:56:21;100891.0;;;2.04;86.87
67430;BME280;54298;52.076;5.264;2023-12-04T03:59:35;100888.0;;;2.33;85.9
67430;BME280;54298;52.076;5.264;2023-12-04T04:01:11;100886.0;;;2.17;86.16
67430;BME280;54298;52.076;5.264;2023-12-04T04:02:47;100885.0;;;2.21;86.01
67430;BME280;54298;52.076;5.264;2023-12-04T04:04:23;100880.0;;;2.25;85.75
67430;BME280;54298;52.076;5.264;2023-12-04T04:07:35;100880.0;;;2.29;85.45
67430;BME280;54298;52.076;5.264;2023-12-04T04:09:11;100870.0;;;2.02;86.05
67430;BME280;54298;52.076;5.264;2023-12-04T04:10:47;100867.0;;;2.17;85.72
67430;BME280;54298;52.076;5.264;2023-12-04T04:13:59;100868.0;;;2.19;85.93
67430;BME280;54298;52.076;5.264;2023-12-04T04:15:36;100863.0;;;2.14;85.57
67430;BME280;54298;52.076;5.264;2023-12-04T04:17:12;100865.0;;;2.14;86.0
67430;BME280;54298;52.076;5.264;2023-12-04T04:20:24;100865.0;;;2.02;86.58
67430;BME280;54298;52.076;5.264;2023-12-04T04:22:00;100861.0;;;2.21;85.84
67430;BME280;54298;52.076;5.264;2023-12-04T04:23:36;100858.0;;;2.1;85.92
67430;BME280;54298;52.076;5.264;2023-12-04T04:26:48;100852.0;;;2.16;85.9
67430;BME280;54298;52.076;5.264;2023-12-04T04:28:24;100858.0;;;2.21;85.8
67430;BME280;54298;52.076;5.264;2023-12-04T04:30:01;100857.0;;;2.15;85.43
67430;BME280;54298;52.076;5.264;2023-12-04T04:31:38;100850.0;;;2.21;85.39
67430;BME280;54298;52.076;5.264;2023-12-04T04:34:50;100842.0;;;2.27;85.07
67430;BME280;54298;52.076;5.264;2023-12-04T04:36:26;100845.0;;;2.15;85.29
67430;BME280;54298;52.076;5.264;2023-12-04T04:38:02;100843.0;;;2.19;85.1
67430;BME280;54298;52.076;5.264;2023-12-04T04:41:15;100839.0;;;2.14;85.17
67430;BME280;54298;52.076;5.264;2023-12-04T04:42:51;100843.0;;;2.21;84.86
67430;BME280;54298;52.076;5.264;2023-12-04T04:44:27;100848.0;;;2.12;85.61
67430;BME280;54298;52.076;5.264;2023-12-04T04:47:40;100846.0;;;2.25;84.98
67430;BME280;54298;52.076;5.264;2023-12-04T04:49:16;100846.0;;;2.25;84.89
67430;BME280;54298;52.076;5.264;2023-12-04T04:50:52;100842.0;;;2.13;85.45
67430;BME280;54298;52.076;5.264;2023-12-04T04:54:04;100842.0;;;2.23;84.53
67430;BME280;54298;52.076;5.264;2023-12-04T04:55:40;100839.0;;;2.19;84.89
67430;BME280;54298;52.076;5.264;2023-12-04T04:57:16;100839.0;;;2.29;84.77
67430;BME280;54298;52.076;5.264;2023-12-04T04:58:52;100836.0;;;2.36;84.52
67430;BME280;54298;52.076;5.264;2023-12-04T05:02:04;100832.0;;;2.19;85.11
67430;BME280;54298;52.076;5.264;2023-12-04T05:03:41;100833.0;;;2.25;84.87
67430;BME280;54298;52.076;5.264;2023-12-04T05:05:17;100828.0;;;2.21;84.82
67430;BME280;54298;52.076;5.264;2023-12-04T05:08:29;100828.0;;;2.23;84.59
67430;BME280;54298;52.076;5.264;2023-12-04T05:10:06;100832.0;;;2.17;84.94
67430;BME280;54298;52.076;5.264;2023-12-04T05:11:42;100825.0;;;2.19;84.83
67430;BME280;54298;52.076;5.264;2023-12-04T05:14:54;100819.0;;;2.27;84.38
67430;BME280;54298;52.076;5.264;2023-12-04T05:16:30;100819.0;;;2.31;84.28
67430;BME280;54298;52.076;5.264;2023-12-04T05:18:06;100821.0;;;2.27;84.39
67430;BME280;54298;52.076;5.264;2023-12-04T05:19:42;100819.0;;;2.09;84.89
67430;BME280;54298;52.076;5.264;2023-12-04T05:22:55;100816.0;;;2.29;84.13
67430;BME280;54298;52.076;5.264;2023-12-04T05:24:32;100816.0;;;2.12;84.71
67430;BME280;54298;52.076;5.264;2023-12-04T05:26:08;100816.0;;;2.27;84.08
67430;BME280;54298;52.076;5.264;2023-12-04T05:29:20;100811.0;;;2.21;83.93
67430;BME280;54298;52.076;5.264;2023-12-04T05:30:56;100807.0;;;2.27;84.03
67430;BME280;54298;52.076;5.264;2023-12-04T05:32:32;100807.0;;;2.32;83.83
67430;BME280;54298;52.076;5.264;2023-12-04T05:35:47;100803.0;;;2.08;83.97
67430;BME280;54298;52.076;5.264;2023-12-04T05:37:23;100790.0;;;2.17;83.93
67430;BME280;54298;52.076;5.264;2023-12-04T05:42:11;100790.0;;;2.27;83.41
67430;BME280;54298;52.076;5.264;2023-12-04T05:43:47;100781.0;;;2.27;83.36
67430;BME280;54298;52.076;5.264;2023-12-04T05:46:59;100777.0;;;2.15;84.05
67430;BME280;54298;52.076;5.264;2023-12-04T05:50:12;100775.0;;;1.97;83.97
67430;BME280;54298;52.076;5.264;2023-12-04T05:51:48;100773.0;;;1.96;84.11
67430;BME280;54298;52.076;5.264;2023-12-04T05:53:24;100770.0;;;2.19;83.62
67430;BME280;54298;52.076;5.264;2023-12-04T05:56:36;100771.0;;;2.32;83.32
67430;BME280;54298;52.076;5.264;2023-12-04T05:58:12;100771.0;;;2.34;83.25
67430;BME280;54298;52.076;5.264;2023-12-04T05:59:48;100760.0;;;2.31;82.87
67430;BME280;54298;52.076;5.264;2023-12-04T06:03:00;100760.0;;;2.27;83.14
67430;BME280;54298;52.076;5.264;2023-12-04T06:04:36;100761.0;;;2.31;82.71
67430;BME280;54298;52.076;5.264;2023-12-04T06:06:12;100753.0;;;2.35;83.12
67430;BME280;54298;52.076;5.264;2023-12-04T06:07:49;100759.0;;;2.37;82.47
67430;BME280;54298;52.076;5.264;2023-12-04T06:11:01;100765.0;;;2.32;81.75
67430;BME280;54298;52.076;5.264;2023-12-04T06:12:37;100767.0;;;2.37;82.01
67430;BME280;54298;52.076;5.264;2023-12-04T06:14:13;100759.0;;;2.38;82.05
67430;BME280;54298;52.076;5.264;2023-12-04T06:17:25;100764.0;;;2.39;82.03
67430;BME280;54298;52.076;5.264;2023-12-04T06:19:01;100752.0;;;2.05;82.1
67430;BME280;54298;52.076;5.264;2023-12-04T06:20:38;100758.0;;;2.36;81.99
67430;BME280;54298;52.076;5.264;2023-12-04T06:23:51;100760.0;;;2.41;81.56
67430;BME280;54298;52.076;5.264;2023-12-04T06:25:29;100755.0;;;2.39;81.48
67430;BME280;54298;52.076;5.264;2023-12-04T06:27:06;100749.0;;;2.48;80.87
67430;BME280;54298;52.076;5.264;2023-12-04T06:30:20;100747.0;;;2.44;80.69
67430;BME280;54298;52.076;5.264;2023-12-04T06:31:57;100749.0;;;2.44;80.52
67430;BME280;54298;52.076;5.264;2023-12-04T06:33:33;100740.0;;;2.48;80.55
67430;BME280;54298;52.076;5.264;2023-12-04T06:35:11;100739.0;;;2.42;80.34
67430;BME280;54298;52.076;5.264;2023-12-04T06:38:25;100726.0;;;2.19;81.47
67430;BME280;54298;52.076;5.264;2023-12-04T06:40:03;100734.0;;;2.46;81.06
67430;BME280;54298;52.076;5.264;2023-12-04T06:41:40;100728.0;;;2.19;81.05
67430;BME280;54298;52.076;5.264;2023-12-04T06:44:52;100721.0;;;2.13;81.49
67430;BME280;54298;52.076;5.264;2023-12-04T06:46:30;100726.0;;;2.15;81.14
67430;BME280;54298;52.076;5.264;2023-12-04T06:48:13;100719.0;;;2.32;81.08
67430;BME280;54298;52.076;5.264;2023-12-04T06:49:50;100710.0;;;2.21;80.98
67430;BME280;54298;52.076;5.264;2023-12-04T06:53:03;100708.0;;;2.41;80.56
67430;BME280;54298;52.076;5.264;2023-12-04T06:54:39;100711.0;;;2.46;79.83
67430;BME280;54298;52.076;5.264;2023-12-04T06:56:15;100706.0;;;2.19;80.27
67430;BME280;54298;52.076;5.264;2023-12-04T06:59:27;100703.0;;;2.33;80.3
67430;BME280;54298;52.076;5.264;2023-12-04T07:01:03;100703.0;;;2.44;80.11
67430;BME280;54298;52.076;5.264;2023-12-04T07:02:39;100700.0;;;2.52;78.97
67430;BME280;54298;52.076;5.264;2023-12-04T07:05:51;100701.0;;;2.37;79.74
67430;BME280;54298;52.076;5.264;2023-12-04T07:07:27;100696.0;;;2.38;79.66
67430;BME280;54298;52.076;5.264;2023-12-04T07:09:04;100698.0;;;2.54;79.47
67430;BME280;54298;52.076;5.264;2023-12-04T07:10:41;100698.0;;;2.56;79.2
67430;BME280;54298;52.076;5.264;2023-12-04T07:13:53;100695.0;;;2.33;79.09
67430;BME280;54298;52.076;5.264;2023-12-04T07:15:29;100687.0;;;2.56;78.55
67430;BME280;54298;52.076;5.264;2023-12-04T07:17:05;100695.0;;;2.44;78.61
67430;BME280;54298;52.076;5.264;2023-12-04T07:20:17;100684.0;;;2.58;78.16
67430;BME280;54298;52.076;5.264;2023-12-04T07:21:53;100684.0;;;2.64;78.22
67430;BME280;54298;52.076;5.264;2023-12-04T07:23:29;100688.0;;;2.5;78.3
67430;BME280;54298;52.076;5.264;2023-12-04T07:26:42;100684.0;;;2.58;78.31
67430;BME280;54298;52.076;5.264;2023-12-04T07:28:18;100690.0;;;2.69;77.66
67430;BME280;54298;52.076;5.264;2023-12-04T07:29:54;100690.0;;;2.65;77.8
67430;BME280;54298;52.076;5.264;2023-12-04T07:31:30;100686.0;;;2.65;77.72
67430;BME280;54298;52.076;5.264;2023-12-04T07:34:42;100694.0;;;2.76;77.55
67430;BME280;54298;52.076;5.264;2023-12-04T07:36:18;100691.0;;;2.85;77.19
67430;BME280;54298;52.076;5.264;2023-12-04T07:37:54;100686.0;;;2.69;77.2
67430;BME280;54298;52.076;5.264;2023-12-04T07:41:06;100684.0;;;2.75;76.83
67430;BME280;54298;52.076;5.264;2023-12-04T07:42:42;100686.0;;;2.76;76.47
67430;BME280;54298;52.076;5.264;2023-12-04T07:44:19;100680.0;;;2.73;76.55
67430;BME280;54298;52.076;5.264;2023-12-04T07:47:31;100678.0;;;2.68;76.7
67430;BME280;54298;52.076;5.264;2023-12-04T07:49:07;100680.0;;;2.65;76.74
67430;BME280;54298;52.076;5.264;2023-12-04T07:50:43;100681.0;;;2.75;76.16
67430;BME280;54298;52.076;5.264;2023-12-04T07:53:55;100680.0;;;2.62;76.19
67430;BME280;54298;52.076;5.264;2023-12-04T07:55:31;100675.0;;;2.7;77.02
67430;BME280;54298;52.076;5.264;2023-12-04T07:57:07;100674.0;;;2.71;76.7
67430;BME280;54298;52.076;5.264;2023-12-04T07:58:43;100669.0;;;2.83;75.72
67430;BME280;54298;52.076;5.264;2023-12-04T08:01:56;100671.0;;;2.82;76.14
67430;BME280;54298;52.076;5.264;2023-12-04T08:03:32;100671.0;;;2.74;75.91
67430;BME280;54298;52.076;5.264;2023-12-04T08:05:08;100680.0;;;2.84;75.97
67430;BME280;54298;52.076;5.264;2023-12-04T08:08:20;100678.0;;;2.82;75.05
67430;BME280;54298;52.076;5.264;2023-12-04T08:09:56;100669.0;;;2.78;74.7
67430;BME280;54298;52.076;5.264;2023-12-04T08:11:32;100678.0;;;2.8;74.73
67430;BME280;54298;52.076;5.264;2023-12-04T08:14:44;100675.0;;;2.81;74.66
67430;BME280;54298;52.076;5.264;2023-12-04T08:16:20;100681.0;;;2.82;74.09
67430;BME280;54298;52.076;5.264;2023-12-04T08:17:57;100672.0;;;2.48;75.17
67430;BME280;54298;52.076;5.264;2023-12-04T08:21:09;100681.0;;;2.72;74.61
67430;BME280;54298;52.076;5.264;2023-12-04T08:22:45;100677.0;;;2.61;74.47
67430;BME280;54298;52.076;5.264;2023-12-04T08:24:21;100673.0;;;2.76;73.66
67430;BME280;54298;52.076;5.264;2023-12-04T08:25:57;100674.0;;;2.89;73.88
67430;BME280;54298;52.076;5.264;2023-12-04T08:29:09;100677.0;;;2.79;73.42
67430;BME280;54298;52.076;5.264;2023-12-04T08:30:45;100672.0;;;2.77;73.41
67430;BME280;54298;52.076;5.264;2023-12-04T08:32:21;100671.0;;;2.83;73.19
67430;BME280;54298;52.076;5.264;2023-12-04T08:35:34;100673.0;;;2.94;72.66
67430;BME280;54298;52.076;5.264;2023-12-04T08:37:10;100657.0;;;2.97;71.89
67430;BME280;54298;52.076;5.264;2023-12-04T08:38:46;100663.0;;;3.06;72.16
67430;BME280;54298;52.076;5.264;2023-12-04T08:41:58;100658.0;;;2.74;71.91
67430;BME280;54298;52.076;5.264;2023-12-04T08:43:34;100655.0;;;3.01;71.72
67430;BME280;54298;52.076;5.264;2023-12-04T08:45:10;100650.0;;;2.68;72.38
67430;BME280;54298;52.076;5.264;2023-12-04T08:48:22;100651.0;;;2.89;71.97
67430;BME280;54298;52.076;5.264;2023-12-04T08:49:59;100638.0;;;2.86;71.69
67430;BME280;54298;52.076;5.264;2023-12-04T08:51:36;100636.0;;;2.83;71.16
67430;BME280;54298;52.076;5.264;2023-12-04T08:53:12;100640.0;;;2.69;71.27
67430;BME280;54298;52.076;5.264;2023-12-04T08:56:24;100631.0;;;3.04;70.37
67430;BME280;54298;52.076;5.264;2023-12-04T08:58:00;100630.0;;;3.08;70.91
67430;BME280;54298;52.076;5.264;2023-12-04T08:59:36;100621.0;;;2.94;70.47
67430;BME280;54298;52.076;5.264;2023-12-04T09:02:48;100624.0;;;3.09;69.8
67430;BME280;54298;52.076;5.264;2023-12-04T09:04:24;100624.0;;;3.02;70.22
67430;BME280;54298;52.076;5.264;2023-12-04T09:06:00;100615.0;;;3.22;70.36
67430;BME280;54298;52.076;5.264;2023-12-04T09:09:13;100624.0;;;3.16;69.88
67430;BME280;54298;52.076;5.264;2023-12-04T09:10:49;100620.0;;;3.19;70.24
67430;BME280;54298;52.076;5.264;2023-12-04T09:12:25;100618.0;;;3.13;69.62
67430;BME280;54298;52.076;5.264;2023-12-04T09:14:01;100614.0;;;3.15;69.44
67430;BME280;54298;52.076;5.264;2023-12-04T09:17:13;100618.0;;;3.01;68.77
67430;BME280;54298;52.076;5.264;2023-12-04T09:18:50;100612.0;;;3.21;68.45
67430;BME280;54298;52.076;5.264;2023-12-04T09:20:26;100617.0;;;3.23;68.39
67430;BME280;54298;52.076;5.264;2023-12-04T09:23:39;100605.0;;;3.17;68.16
67430;BME280;54298;52.076;5.264;2023-12-04T09:25:15;100608.0;;;3.09;68.49
67430;BME280;54298;52.076;5.264;2023-12-04T09:26:51;100610.0;;;3.3;68.23
67430;BME280;54298;52.076;5.264;2023-12-04T09:30:04;100609.0;;;3.24;67.53
67430;BME280;54298;52.076;5.264;2023-12-04T09:31:40;100606.0;;;3.17;67.39
67430;BME280;54298;52.076;5.264;2023-12-04T09:33:16;100602.0;;;3.14;66.88
67430;BME280;54298;52.076;5.264;2023-12-04T09:36:28;100605.0;;;3.24;66.85
67430;BME280;54298;52.076;5.264;2023-12-04T09:38:05;100603.0;;;3.4;66.83
67430;BME280;54298;52.076;5.264;2023-12-04T09:39:41;100612.0;;;3.3;67.08
67430;BME280;54298;52.076;5.264;2023-12-04T09:41:17;100612.0;;;3.54;66.52
67430;BME280;54298;52.076;5.264;2023-12-04T09:44:32;100609.0;;;3.41;66.3
67430;BME280;54298;52.076;5.264;2023-12-04T09:46:09;100606.0;;;3.11;67.05
67430;BME280;54298;52.076;5.264;2023-12-04T09:47:47;100609.0;;;3.46;66.75
67430;BME280;54298;52.076;5.264;2023-12-04T09:51:05;100613.0;;;3.51;66.27
67430;BME280;54298;52.076;5.264;2023-12-04T09:52:42;100613.0;;;3.44;65.85
67430;BME280;54298;52.076;5.264;2023-12-04T09:54:19;100612.0;;;3.45;66.41
67430;BME280;54298;52.076;5.264;2023-12-04T09:55:57;100609.0;;;3.54;66.27
67430;BME280;54298;52.076;5.264;2023-12-04T09:59:13;100609.0;;;3.57;66.44
67430;BME280;54298;52.076;5.264;2023-12-04T10:00:51;100601.0;;;3.46;66.0
67430;BME280;54298;52.076;5.264;2023-12-04T10:02:29;100602.0;;;3.52;65.91
67430;BME280;54298;52.076;5.264;2023-12-04T10:05:43;100606.0;;;3.66;64.99
67430;BME280;54298;52.076;5.264;2023-12-04T10:07:19;100598.0;;;3.57;65.13
67430;BME280;54298;52.076;5.264;2023-12-04T10:08:56;100595.0;;;3.67;65.06
67430;BME280;54298;52.076;5.264;2023-12-04T10:10:32;100598.0;;;3.74;65.38
67430;BME280;54298;52.076;5.264;2023-12-04T10:13:45;100590.0;;;3.75;64.98
67430;BME280;54298;52.076;5.264;2023-12-04T10:15:21;100589.0;;;3.81;64.33
67430;BME280;54298;52.076;5.264;2023-12-04T10:16:57;100585.0;;;3.91;63.79
67430;BME280;54298;52.076;5.264;2023-12-04T10:20:11;100577.0;;;3.75;64.41
67430;BME280;54298;52.076;5.264;2023-12-04T10:21:48;100575.0;;;3.81;64.03
67430;BME280;54298;52.076;5.264;2023-12-04T10:23:36;100574.0;;;3.73;64.69
67430;BME280;54298;52.076;5.264;2023-12-04T10:25:14;100574.0;;;4.01;64.19
67430;BME280;54298;52.076;5.264;2023-12-04T10:28:27;100569.0;;;4.04;65.19
67430;BME280;54298;52.076;5.264;2023-12-04T10:30:04;100559.0;;;3.91;64.23
67430;BME280;54298;52.076;5.264;2023-12-04T10:31:40;100561.0;;;3.86;63.95
67430;BME280;54298;52.076;5.264;2023-12-04T10:34:54;100553.0;;;3.84;62.91
67430;BME280;54298;52.076;5.264;2023-12-04T10:36:30;100544.0;;;3.93;63.51
67430;BME280;54298;52.076;5.264;2023-12-04T10:38:07;100548.0;;;4.07;63.83
67430;BME280;54298;52.076;5.264;2023-12-04T10:41:22;100539.0;;;3.77;64.38
67430;BME280;54298;52.076;5.264;2023-12-04T10:43:11;100538.0;;;3.79;64.02
67430;BME280;54298;52.076;5.264;2023-12-04T10:45:05;100532.0;;;3.72;63.36
67430;BME280;54298;52.076;5.264;2023-12-04T10:46:41;100533.0;;;3.9;63.87
67430;BME280;54298;52.076;5.264;2023-12-04T10:48:19;100528.0;;;4.03;63.8
67430;BME280;54298;52.076;5.264;2023-12-04T10:51:31;100524.0;;;4.2;64.14
67430;BME280;54298;52.076;5.264;2023-12-04T10:53:08;100513.0;;;4.14;64.08
67430;BME280;54298;52.076;5.264;2023-12-04T10:54:45;100517.0;;;4.24;64.16
67430;BME280;54298;52.076;5.264;2023-12-04T10:58:07;100512.0;;;3.99;64.27
67430;BME280;54298;52.076;5.264;2023-12-04T10:59:44;100507.0;;;4.2;63.75
67430;BME280;54298;52.076;5.264;2023-12-04T11:01:21;100502.0;;;4.16;63.73
67430;BME280;54298;52.076;5.264;2023-12-04T11:03:03;100498.0;;;4.2;64.83
67430;BME280;54298;52.076;5.264;2023-12-04T11:06:20;100492.0;;;4.12;64.24
67430;BME280;54298;52.076;5.264;2023-12-04T11:07:58;100493.0;;;4.2;63.84
67430;BME280;54298;52.076;5.264;2023-12-04T11:09:37;100492.0;;;4.2;63.91
67430;BME280;54298;52.076;5.264;2023-12-04T11:11:15;100484.0;;;4.24;63.76
67430;BME280;54298;52.076;5.264;2023-12-04T11:14:49;100489.0;;;4.3;63.93
67430;BME280;54298;52.076;5.264;2023-12-04T11:16:34;100478.0;;;4.24;63.77
67430;BME280;54298;52.076;5.264;2023-12-04T11:18:20;100477.0;;;4.37;63.71
67430;BME280;54298;52.076;5.264;2023-12-04T11:20:02;100472.0;;;4.39;63.91